Time;durP1;ratioP1;P1;durP2;ratioP2;P2;SDS_P1;SDS_P2;PMS_P1;PMS_P2;Temp;Humidity;BMP_temperature;BMP_pressure;BME280_temperature;BME280_humidity;BME280_pressure;Samples;Min_cycle;Max_cycle;Signal;HPM_P1;HPM_P2
2022/05/01 00:01:31;;;;;;;18.45;9.20;;;;;;;;;;5052309;28;20047;-79
2022/05/01 00:03:57;;;;;;;20.45;9.60;;;;;;;;;;5052349;28;20063;-79
2022/05/01 00:06:23;;;;;;;18.60;8.93;;;;;;;;;;5052433;28;20033;-79
2022/05/01 00:08:49;;;;;;;17.67;9.68;;;;;;;;;;5052553;28;20315;-79
2022/05/01 00:11:15;;;;;;;15.82;8.25;;;;;;;;;;5052300;28;20047;-79
2022/05/01 00:13:42;;;;;;;24.33;8.63;;;;;;;;;;5052373;28;20084;-79
2022/05/01 00:16:08;;;;;;;20.75;10.50;;;;;;;;;;5052334;28;20041;-79
2022/05/01 00:18:34;;;;;;;29.08;13.35;;;;;;;;;;5052307;28;20037;-79
2022/05/01 00:21:00;;;;;;;26.95;11.30;;;;;;;;;;5052112;28;20502;-79
2022/05/01 00:23:27;;;;;;;34.03;13.20;;;;;;;;;;5052220;28;20043;-79
2022/05/01 00:25:53;;;;;;;20.30;10.32;;;;;;;;;;5051897;28;20412;-80
2022/05/01 00:28:19;;;;;;;19.70;9.70;;;;;;;;;;5052084;28;20070;-79
2022/05/01 00:30:45;;;;;;;23.55;11.75;;;;;;;;;;5049263;28;20040;-79
2022/05/01 00:38:40;;;;;;;21.40;10.30;;;;;;;;;;5067715;28;20151;-79
2022/05/01 00:41:11;;;;;;;20.50;9.98;;;;;;;;;;5068427;28;20139;-79
2022/05/01 00:43:55;;;;;;;19.48;10.05;;;;;;;;;;5052159;28;20033;-79
2022/05/01 00:46:21;;;;;;;16.25;9.95;;;;;;;;;;5068383;28;20029;-79
2022/05/01 00:48:48;;;;;;;18.90;10.30;;;;;;;;;;5051963;28;20408;-79
2022/05/01 00:51:14;;;;;;;20.73;10.40;;;;;;;;;;5068755;28;20048;-80
2022/05/01 00:53:40;;;;;;;20.67;11.63;;;;;;;;;;5051685;28;20040;-79
2022/05/01 00:56:07;;;;;;;24.75;11.95;;;;;;;;;;5049266;28;20040;-79
2022/05/01 00:58:33;;;;;;;25.25;11.55;;;;;;;;;;5052021;28;20094;-79
2022/05/01 01:01:00;;;;;;;22.17;11.40;;;;;;;;;;5068174;28;20113;-79
2022/05/01 01:03:26;;;;;;;22.75;12.50;;;;;;;;;;5051734;28;20095;-79
2022/05/01 01:05:51;;;;;;;25.33;12.05;;;;;;;;;;5068276;28;20068;-79
2022/05/01 01:08:18;;;;;;;22.42;11.60;;;;;;;;;;5068511;28;20369;-79
2022/05/01 01:10:43;;;;;;;20.98;10.82;;;;;;;;;;5051764;28;20037;-81
2022/05/01 01:13:10;;;;;;;26.95;11.30;;;;;;;;;;5068444;28;20073;-79
2022/05/01 01:15:37;;;;;;;21.90;10.57;;;;;;;;;;5051609;28;20044;-80
2022/05/01 01:18:03;;;;;;;20.52;10.70;;;;;;;;;;5055070;28;20036;-79
2022/05/01 01:20:31;;;;;;;22.38;11.45;;;;;;;;;;5055340;28;20129;-79
2022/05/01 01:22:58;;;;;;;19.63;10.40;;;;;;;;;;5054997;28;20178;-79
2022/05/01 01:25:26;;;;;;;21.55;10.18;;;;;;;;;;5055085;28;20048;-81
2022/05/01 01:27:56;;;;;;;19.02;10.13;;;;;;;;;;5055139;28;20045;-79
2022/05/01 01:33:07;;;;;;;22.10;10.98;;;;;;;;;;5069459;28;20032;-79
2022/05/01 01:35:35;;;;;;;19.33;9.82;;;;;;;;;;5054775;28;20400;-79
2022/05/01 01:38:01;;;;;;;21.85;11.55;;;;;;;;;;5054604;28;20040;-79
2022/05/01 01:40:46;;;;;;;21.90;10.50;;;;;;;;;;5054667;28;20036;-79
2022/05/01 01:43:12;;;;;;;23.17;11.20;;;;;;;;;;5069450;28;20111;-79
2022/05/01 01:45:38;;;;;;;20.30;10.90;;;;;;;;;;5071488;28;20083;-79
2022/05/01 01:48:18;;;;;;;22.63;11.05;;;;;;;;;;5054654;28;20162;-80
2022/05/01 01:50:44;;;;;;;18.30;9.88;;;;;;;;;;5054967;28;20068;-79
2022/05/01 01:53:11;;;;;;;23.67;12.18;;;;;;;;;;5054735;28;20523;-79
2022/05/01 01:55:38;;;;;;;21.73;10.38;;;;;;;;;;5054300;28;20067;-79
2022/05/01 01:58:05;;;;;;;19.02;10.55;;;;;;;;;;5054294;28;20040;-80
2022/05/01 02:00:31;;;;;;;21.40;10.10;;;;;;;;;;5054183;28;20055;-79
2022/05/01 02:03:01;;;;;;;21.58;11.25;;;;;;;;;;5054385;28;20055;-79
2022/05/01 02:05:27;;;;;;;20.85;11.40;;;;;;;;;;5051713;28;20070;-79
2022/05/01 02:07:56;;;;;;;22.35;10.70;;;;;;;;;;5054168;28;20040;-79
2022/05/01 02:10:22;;;;;;;28.17;11.45;;;;;;;;;;5054100;28;20033;-79
2022/05/01 02:12:48;;;;;;;19.85;10.27;;;;;;;;;;5054338;28;20036;-79
2022/05/01 02:15:15;;;;;;;20.52;10.57;;;;;;;;;;5054233;28;20125;-79
2022/05/01 02:17:41;;;;;;;22.88;10.75;;;;;;;;;;5054331;28;20040;-79
2022/05/01 02:20:08;;;;;;;19.83;10.15;;;;;;;;;;5070684;28;20083;-79
2022/05/01 02:22:34;;;;;;;18.02;10.63;;;;;;;;;;5053972;28;20072;-79
2022/05/01 02:25:00;;;;;;;18.83;9.85;;;;;;;;;;5070824;28;20040;-79
2022/05/01 02:27:26;;;;;;;21.98;10.30;;;;;;;;;;5051066;28;20040;-79
2022/05/01 02:29:52;;;;;;;22.10;10.13;;;;;;;;;;5053770;28;20090;-79
2022/05/01 02:32:18;;;;;;;21.17;10.48;;;;;;;;;;5053929;28;20048;-79
2022/05/01 02:34:45;;;;;;;19.10;9.70;;;;;;;;;;5053845;28;20045;-79
2022/05/01 02:37:11;;;;;;;22.58;10.80;;;;;;;;;;5053811;28;20045;-79
2022/05/01 02:39:37;;;;;;;18.35;10.52;;;;;;;;;;5053548;28;20055;-80
2022/05/01 02:42:03;;;;;;;23.02;11.18;;;;;;;;;;5053479;28;20047;-79
2022/05/01 02:44:29;;;;;;;20.35;10.35;;;;;;;;;;5069971;28;20093;-79
2022/05/01 02:46:56;;;;;;;23.23;11.90;;;;;;;;;;5053547;28;20143;-79
2022/05/01 02:49:22;;;;;;;18.75;9.77;;;;;;;;;;5053621;28;20047;-79
2022/05/01 02:51:49;;;;;;;20.17;9.50;;;;;;;;;;5053607;28;20144;-79
2022/05/01 02:54:15;;;;;;;19.90;10.75;;;;;;;;;;5053310;28;20127;-79
2022/05/01 02:56:41;;;;;;;18.35;9.80;;;;;;;;;;5053743;28;20051;-80
2022/05/01 02:59:09;;;;;;;17.95;10.65;;;;;;;;;;5070224;28;20040;-79
2022/05/01 03:01:38;;;;;;;19.58;10.85;;;;;;;;;;5053004;28;20450;-81
2022/05/01 03:04:04;;;;;;;17.48;9.38;;;;;;;;;;5069970;28;20044;-79
2022/05/01 03:06:32;;;;;;;19.48;9.43;;;;;;;;;;5053435;28;20040;-79
2022/05/01 03:08:58;;;;;;;19.92;10.98;;;;;;;;;;5053393;28;20050;-79
2022/05/01 03:11:24;;;;;;;15.77;8.68;;;;;;;;;;5050206;28;20186;-79
2022/05/01 03:13:50;;;;;;;20.13;8.70;;;;;;;;;;5049400;28;20483;-79
2022/05/01 03:16:16;;;;;;;18.45;9.40;;;;;;;;;;5049557;28;20057;-80
2022/05/01 03:24:11;;;;;;;26.00;7.55;;;;;;;;;;5064225;28;20040;-79
2022/05/01 03:26:38;;;;;;;16.20;9.10;;;;;;;;;;5049630;28;20434;-80
2022/05/01 03:29:04;;;;;;;15.98;7.82;;;;;;;;;;5049287;28;20111;-80
2022/05/01 03:31:30;;;;;;;13.27;7.40;;;;;;;;;;5049296;28;20191;-80
2022/05/01 03:33:56;;;;;;;15.05;6.82;;;;;;;;;;5066369;28;20487;-80
2022/05/01 03:36:22;;;;;;;7.97;6.30;;;;;;;;;;5049070;28;20058;-79
2022/05/01 03:38:48;;;;;;;9.52;5.78;;;;;;;;;;5065193;28;20552;-80
2022/05/01 03:41:16;;;;;;;8.70;5.45;;;;;;;;;;5065485;28;20091;-79
2022/05/01 03:43:43;;;;;;;7.68;5.75;;;;;;;;;;5048934;28;20484;-79
2022/05/01 03:46:10;;;;;;;9.88;5.65;;;;;;;;;;5049373;28;20753;-80
2022/05/01 03:48:36;;;;;;;8.27;6.10;;;;;;;;;;5049482;28;20090;-80
2022/05/01 03:51:02;;;;;;;9.57;6.20;;;;;;;;;;5048904;28;20047;-80
2022/05/01 03:53:31;;;;;;;13.65;8.00;;;;;;;;;;5049458;28;20047;-80
2022/05/01 03:55:57;;;;;;;14.00;7.47;;;;;;;;;;5066331;28;20079;-79
2022/05/01 03:58:23;;;;;;;11.70;6.43;;;;;;;;;;5051931;28;20045;-80
2022/05/01 04:00:50;;;;;;;58.35;8.20;;;;;;;;;;5052101;28;20045;-79
2022/05/01 04:03:17;;;;;;;11.63;6.15;;;;;;;;;;5069017;28;20454;-81
2022/05/01 04:05:43;;;;;;;20.17;7.32;;;;;;;;;;5052442;28;20089;-79
2022/05/01 04:08:10;;;;;;;14.07;7.15;;;;;;;;;;5069202;28;20040;-79
2022/05/01 04:10:41;;;;;;;10.98;5.70;;;;;;;;;;5052228;28;20040;-79
2022/05/01 04:13:07;;;;;;;11.10;6.18;;;;;;;;;;5052640;28;20043;-80
2022/05/01 04:15:33;;;;;;;16.38;7.40;;;;;;;;;;5052170;28;20033;-79
2022/05/01 04:18:02;;;;;;;13.13;8.52;;;;;;;;;;5052078;28;20044;-79
2022/05/01 04:20:29;;;;;;;16.67;8.50;;;;;;;;;;5052384;28;20033;-80
2022/05/01 04:22:55;;;;;;;14.30;8.35;;;;;;;;;;5069161;28;20051;-79
2022/05/01 04:25:22;;;;;;;17.77;8.73;;;;;;;;;;5051880;28;20078;-80
2022/05/01 04:27:49;;;;;;;13.88;7.90;;;;;;;;;;5049500;28;20024;-80
2022/05/01 04:30:15;;;;;;;10.73;6.60;;;;;;;;;;5052079;28;20064;-80
2022/05/01 04:32:58;;;;;;;10.63;6.75;;;;;;;;;;5052329;28;20044;-80
2022/05/01 04:35:40;;;;;;;10.32;6.80;;;;;;;;;;5053590;28;20105;-80
2022/05/01 04:38:07;;;;;;;;;;;;;;;;;;5053589;28;20044;-80
2022/05/01 04:40:38;;;;;;;11.32;6.60;;;;;;;;;;5053247;28;19931;-80
2022/05/01 04:43:14;;;;;;;8.98;5.68;;;;;;;;;;5053155;28;20047;-79
2022/05/01 04:45:42;;;;;;;9.73;6.85;;;;;;;;;;5069585;28;20048;-80
2022/05/01 04:48:08;;;;;;;8.10;5.55;;;;;;;;;;5053276;28;20041;-80
2022/05/01 04:50:35;;;;;;;15.32;6.32;;;;;;;;;;5055222;28;20044;-80
2022/05/01 04:53:01;;;;;;;9.13;5.70;;;;;;;;;;5056998;28;20048;-80
2022/05/01 04:55:28;;;;;;;11.27;6.35;;;;;;;;;;5057203;28;20040;-80
2022/05/01 04:57:54;;;;;;;12.00;6.47;;;;;;;;;;5057018;28;20040;-80
2022/05/01 05:00:20;;;;;;;12.60;7.50;;;;;;;;;;5056747;28;20047;-79
2022/05/01 05:02:47;;;;;;;9.27;5.80;;;;;;;;;;5057035;28;20079;-79
2022/05/01 05:05:14;;;;;;;7.68;4.80;;;;;;;;;;5056997;28;20127;-79
2022/05/01 05:07:40;;;;;;;6.63;4.93;;;;;;;;;;5056933;28;20044;-80
2022/05/01 05:10:07;;;;;;;10.60;6.45;;;;;;;;;;5056595;28;20090;-80
2022/05/01 05:12:34;;;;;;;7.65;5.40;;;;;;;;;;5056528;28;20472;-80
2022/05/01 05:15:00;;;;;;;8.52;6.03;;;;;;;;;;5056525;28;20101;-80
2022/05/01 05:17:27;;;;;;;9.32;6.50;;;;;;;;;;5056525;28;20044;-80
2022/05/01 05:19:53;;;;;;;9.63;6.78;;;;;;;;;;5056659;28;20046;-80
2022/05/01 05:22:19;;;;;;;10.18;7.22;;;;;;;;;;5056618;28;20560;-80
2022/05/01 05:24:45;;;;;;;11.02;6.95;;;;;;;;;;5056590;28;20036;-80
2022/05/01 05:27:11;;;;;;;10.75;6.82;;;;;;;;;;5056361;28;20044;-80
2022/05/01 05:29:38;;;;;;;9.80;7.35;;;;;;;;;;5056487;28;20113;-79
2022/05/01 05:32:04;;;;;;;10.20;7.82;;;;;;;;;;5072899;28;20074;-79
2022/05/01 05:34:30;;;;;;;13.73;7.93;;;;;;;;;;5056018;28;20136;-80
2022/05/01 05:36:56;;;;;;;13.98;7.47;;;;;;;;;;5056489;28;20075;-79
2022/05/01 05:39:22;;;;;;;13.45;8.95;;;;;;;;;;5055988;28;20067;-79
2022/05/01 05:41:48;;;;;;;14.68;8.68;;;;;;;;;;5055865;28;20049;-79
2022/05/01 05:44:14;;;;;;;12.82;8.50;;;;;;;;;;5072721;28;20040;-79
2022/05/01 05:46:40;;;;;;;13.65;8.57;;;;;;;;;;5056224;28;20032;-78
2022/05/01 05:49:06;;;;;;;22.17;10.55;;;;;;;;;;5056165;28;20127;-79
2022/05/01 05:51:32;;;;;;;16.23;9.40;;;;;;;;;;5055918;28;20044;-78
2022/05/01 05:53:58;;;;;;;15.48;9.20;;;;;;;;;;5055818;28;20044;-79
2022/05/01 05:56:24;;;;;;;19.35;10.10;;;;;;;;;;5072435;28;20132;-79
2022/05/01 05:58:50;;;;;;;17.67;9.88;;;;;;;;;;5055632;28;20476;-79
2022/05/01 06:01:16;;;;;;;18.40;9.65;;;;;;;;;;5071893;28;20072;-78
2022/05/01 06:03:43;;;;;;;16.45;10.38;;;;;;;;;;5071930;28;20119;-78
2022/05/01 06:06:09;;;;;;;18.45;9.85;;;;;;;;;;5055282;28;20032;-78
2022/05/01 06:08:35;;;;;;;20.35;10.75;;;;;;;;;;5054219;28;20434;-79
2022/05/01 06:11:01;;;;;;;15.77;9.85;;;;;;;;;;5054338;28;20132;-79
2022/05/01 06:13:27;;;;;;;14.70;8.88;;;;;;;;;;5054210;28;20041;-79
2022/05/01 06:15:53;;;;;;;13.07;8.85;;;;;;;;;;5070726;28;20051;-79
2022/05/01 06:18:19;;;;;;;13.73;8.50;;;;;;;;;;5053961;28;20048;-79
2022/05/01 06:20:45;;;;;;;15.50;9.38;;;;;;;;;;5054078;28;20484;-78
2022/05/01 06:23:11;;;;;;;15.27;8.73;;;;;;;;;;5054135;28;20502;-79
2022/05/01 06:25:43;;;;;;;14.48;8.70;;;;;;;;;;5053919;28;20041;-79
2022/05/01 06:28:09;;;;;;;12.27;8.10;;;;;;;;;;5070845;28;20560;-78
2022/05/01 06:30:36;;;;;;;12.98;8.60;;;;;;;;;;5053720;28;20028;-79
2022/05/01 06:33:02;;;;;;;13.73;8.88;;;;;;;;;;5070494;28;20040;-79
2022/05/01 06:35:31;;;;;;;10.18;7.57;;;;;;;;;;5070479;28;20132;-79
2022/05/01 06:37:57;;;;;;;12.30;7.60;;;;;;;;;;5070236;28;20504;-79
2022/05/01 06:40:23;;;;;;;10.77;7.70;;;;;;;;;;5053476;28;20044;-79
2022/05/01 06:42:49;;;;;;;13.32;8.52;;;;;;;;;;5071648;28;20049;-79
2022/05/01 06:45:15;;;;;;;9.23;7.28;;;;;;;;;;5054821;28;20051;-79
2022/05/01 06:47:41;;;;;;;12.38;6.93;;;;;;;;;;5071651;28;20048;-79
2022/05/01 06:50:07;;;;;;;11.50;9.98;;;;;;;;;;5055091;28;20123;-78
2022/05/01 06:52:33;;;;;;;9.13;7.00;;;;;;;;;;5054656;28;20090;-79
2022/05/01 06:55:00;;;;;;;11.68;10.18;;;;;;;;;;5054793;28;20048;-80
2022/05/01 06:57:26;;;;;;;9.57;8.48;;;;;;;;;;5071193;28;20045;-79
2022/05/01 06:59:53;;;;;;;10.05;9.07;;;;;;;;;;5054707;28;20060;-79
2022/05/01 07:02:19;;;;;;;11.15;10.05;;;;;;;;;;5054348;28;20142;-79
2022/05/01 07:04:45;;;;;;;11.73;9.70;;;;;;;;;;5071035;28;20393;-79
2022/05/01 07:07:11;;;;;;;8.57;6.75;;;;;;;;;;5054373;28;20503;-80
2022/05/01 07:09:37;;;;;;;10.38;9.43;;;;;;;;;;5071096;28;20071;-79
2022/05/01 07:12:03;;;;;;;11.20;10.15;;;;;;;;;;5070743;28;20040;-79
2022/05/01 07:14:29;;;;;;;9.23;8.32;;;;;;;;;;5054780;28;20048;-79
2022/05/01 07:16:55;;;;;;;8.75;7.85;;;;;;;;;;5055150;28;20396;-79
2022/05/01 07:19:21;;;;;;;8.77;7.88;;;;;;;;;;5072146;28;20467;-79
2022/05/01 07:21:47;;;;;;;8.68;7.88;;;;;;;;;;5071237;28;20438;-78
2022/05/01 07:24:13;;;;;;;9.00;8.20;;;;;;;;;;5070563;28;20049;-79
2022/05/01 07:26:39;;;;;;;9.45;8.65;;;;;;;;;;5053959;28;20052;-79
2022/05/01 07:29:05;;;;;;;8.88;8.07;;;;;;;;;;5054190;28;20047;-79
2022/05/01 07:31:31;;;;;;;8.40;7.60;;;;;;;;;;5070661;28;20043;-79
2022/05/01 07:33:57;;;;;;;9.18;8.27;;;;;;;;;;5054347;28;20078;-79
2022/05/01 07:36:23;;;;;;;8.38;7.57;;;;;;;;;;5053816;28;20039;-79
2022/05/01 07:38:50;;;;;;;5.72;5.20;;;;;;;;;;5070505;28;20158;-79
2022/05/01 07:41:17;;;;;;;7.28;6.60;;;;;;;;;;5070490;28;20056;-79
2022/05/01 07:43:44;;;;;;;8.32;7.53;;;;;;;;;;5070240;28;20059;-79
2022/05/01 07:46:10;;;;;;;7.18;6.47;;;;;;;;;;5049482;28;20045;-79
2022/05/01 07:48:36;;;;;;;7.75;6.95;;;;;;;;;;5048864;28;20040;-80
2022/05/01 07:51:02;;;;;;;6.85;6.15;;;;;;;;;;5062625;28;20036;-80
2022/05/01 07:53:28;;;;;;;7.65;6.95;;;;;;;;;;5065685;28;20036;-80
2022/05/01 07:55:56;;;;;;;7.20;6.50;;;;;;;;;;5048847;28;20514;-80
2022/05/01 07:58:22;;;;;;;8.05;7.30;;;;;;;;;;5027660;28;20040;-79
2022/05/01 08:00:48;;;;;;;7.03;6.43;;;;;;;;;;5048589;28;20040;-79
2022/05/01 08:05:59;;;;;;;6.38;5.78;;;;;;;;;;5065072;28;20072;-79
2022/05/01 08:08:25;;;;;;;7.35;6.53;;;;;;;;;;5065593;28;20037;-79
2022/05/01 08:10:51;;;;;;;6.22;5.68;;;;;;;;;;5048670;28;20124;-79
2022/05/01 08:13:17;;;;;;;7.30;6.18;;;;;;;;;;5048920;28;20159;-79
2022/05/01 08:15:43;;;;;;;6.95;6.35;;;;;;;;;;5048445;28;20037;-81
2022/05/01 08:21:05;;;;;;;6.80;6.20;;;;;;;;;;5065043;28;20045;-78
2022/05/01 08:23:31;;;;;;;7.03;6.25;;;;;;;;;;5049864;28;20055;-79
2022/05/01 08:26:02;;;;;;;6.70;6.10;;;;;;;;;;5068878;28;20044;-79
2022/05/01 08:28:29;;;;;;;6.75;6.07;;;;;;;;;;5054107;28;20058;-80
2022/05/01 08:30:55;;;;;;;6.32;5.72;;;;;;;;;;5053011;28;20048;-79
2022/05/01 08:33:21;;;;;;;5.78;4.90;;;;;;;;;;5052635;28;20059;-79
2022/05/01 08:35:47;;;;;;;7.07;5.80;;;;;;;;;;5052830;28;20068;-79
2022/05/01 08:38:13;;;;;;;11.00;6.18;;;;;;;;;;5049251;28;20059;-78
2022/05/01 08:40:40;;;;;;;5.43;4.93;;;;;;;;;;5052598;28;20045;-80
2022/05/01 08:43:06;;;;;;;6.07;5.40;;;;;;;;;;5052551;28;20044;-79
2022/05/01 08:45:41;;;;;;;3.97;3.20;;;;;;;;;;5069149;28;20039;-79
2022/05/01 08:48:16;;;;;;;4.88;3.78;;;;;;;;;;5052717;28;20087;-78
2022/05/01 08:50:42;;;;;;;4.63;3.47;;;;;;;;;;5067169;28;20044;-77
2022/05/01 08:53:09;;;;;;;4.78;4.28;;;;;;;;;;5052159;28;20495;-79
2022/05/01 08:55:35;;;;;;;6.25;5.40;;;;;;;;;;5052191;28;20514;-78
2022/05/01 08:58:01;;;;;;;8.90;4.22;;;;;;;;;;5052527;28;20071;-79
2022/05/01 09:00:27;;;;;;;4.75;3.70;;;;;;;;;;5068663;28;20123;-79
2022/05/01 09:02:54;;;;;;;5.60;3.85;;;;;;;;;;5049559;28;20052;-77
2022/05/01 09:05:20;;;;;;;6.13;3.90;;;;;;;;;;5053348;28;20500;-78
2022/05/01 09:07:46;;;;;;;6.10;5.60;;;;;;;;;;5052254;28;20040;-78
2022/05/01 09:10:13;;;;;;;6.38;5.68;;;;;;;;;;5052016;28;20064;-80
2022/05/01 09:12:52;;;;;;;6.10;5.20;;;;;;;;;;5068482;28;20145;-78
2022/05/01 09:15:32;;;;;;;4.53;3.45;;;;;;;;;;5065763;28;20040;-79
2022/05/01 09:18:02;;;;;;;5.53;5.03;;;;;;;;;;5049882;28;20048;-77
2022/05/01 09:20:28;;;;;;;;;;;;;;;;;;5052599;28;20047;-80
2022/05/01 09:22:55;;;;;;;5.38;4.88;;;;;;;;;;5048827;28;19920;-79
2022/05/01 09:25:22;;;;;;;3.22;2.90;;;;;;;;;;5068384;28;20123;-79
2022/05/01 09:27:57;;;;;;;5.88;3.53;;;;;;;;;;5067824;28;20202;-78
2022/05/01 09:30:34;;;;;;;5.47;4.97;;;;;;;;;;5051903;28;20044;-79
2022/05/01 09:33:00;;;;;;;5.47;3.55;;;;;;;;;;5049952;28;20086;-75
2022/05/01 09:35:29;;;;;;;4.97;3.08;;;;;;;;;;5071641;28;20044;-80
2022/05/01 09:38:09;;;;;;;6.00;3.58;;;;;;;;;;5052895;28;20040;-76
2022/05/01 09:40:35;;;;;;;6.78;3.67;;;;;;;;;;5071405;28;20565;-77
2022/05/01 09:43:01;;;;;;;4.53;3.30;;;;;;;;;;5055818;28;20040;-78
2022/05/01 09:45:31;;;;;;;4.38;3.15;;;;;;;;;;5072887;28;20142;-79
2022/05/01 09:47:57;;;;;;;5.05;2.92;;;;;;;;;;5056385;28;20044;-79
2022/05/01 09:50:40;;;;;;;6.38;3.55;;;;;;;;;;5055970;28;20465;-78
2022/05/01 09:53:06;;;;;;;6.30;3.85;;;;;;;;;;5072796;28;20045;-78
2022/05/01 09:55:32;;;;;;;6.75;3.10;;;;;;;;;;5072881;28;20041;-78
2022/05/01 09:58:11;;;;;;;5.22;3.60;;;;;;;;;;5055446;28;20041;-74
2022/05/01 10:00:42;;;;;;;3.35;3.05;;;;;;;;;;5070457;28;20478;-78
2022/05/01 10:03:21;;;;;;;4.80;3.33;;;;;;;;;;5071748;28;20037;-76
2022/05/01 10:05:48;;;;;;;4.05;3.13;;;;;;;;;;5072084;28;20044;-77
2022/05/01 10:08:16;;;;;;;4.68;2.85;;;;;;;;;;5073002;28;20135;-79
2022/05/01 10:10:42;;;;;;;4.55;3.45;;;;;;;;;;5056668;28;20040;-78
2022/05/01 10:13:10;;;;;;;6.03;3.25;;;;;;;;;;5072976;28;20694;-73
2022/05/01 10:15:36;;;;;;;3.97;2.72;;;;;;;;;;5056471;28;20037;-79
2022/05/01 10:18:03;;;;;;;4.63;2.95;;;;;;;;;;5040623;28;20377;-79
2022/05/01 10:20:29;;;;;;;3.63;2.67;;;;;;;;;;5056617;28;20047;-78
2022/05/01 10:22:59;;;;;;;3.58;2.63;;;;;;;;;;5056290;28;20040;-78
2022/05/01 10:25:25;;;;;;;4.05;3.03;;;;;;;;;;5055485;28;20040;-79
2022/05/01 10:28:01;;;;;;;5.93;3.00;;;;;;;;;;5055207;28;20041;-76
2022/05/01 10:33:25;;;;;;;4.18;2.83;;;;;;;;;;5071818;28;20052;-78
2022/05/01 10:36:10;;;;;;;3.70;2.67;;;;;;;;;;5053391;28;20126;-78
2022/05/01 10:38:45;;;;;;;5.13;3.22;;;;;;;;;;5070611;28;20500;-76
2022/05/01 10:41:11;;;;;;;3.58;3.00;;;;;;;;;;5070903;28;20040;-78
2022/05/01 10:43:37;;;;;;;4.07;2.80;;;;;;;;;;5055861;28;20043;-78
2022/05/01 10:46:05;;;;;;;5.45;3.08;;;;;;;;;;5055710;28;20074;-78
2022/05/01 10:48:36;;;;;;;3.70;2.75;;;;;;;;;;5054917;28;20082;-78
2022/05/01 10:51:02;;;;;;;;;;;;;;;;;;5071798;28;20056;-75
2022/05/01 10:53:28;;;;;;;4.15;2.72;;;;;;;;;;5069467;28;19921;-76
2022/05/01 10:55:55;;;;;;;3.97;2.60;;;;;;;;;;5052882;28;20037;-77
2022/05/01 10:58:22;;;;;;;3.85;3.00;;;;;;;;;;5053749;28;20047;-78
2022/05/01 11:00:48;;;;;;;5.10;2.83;;;;;;;;;;5071719;28;20101;-77
2022/05/01 11:03:25;;;;;;;4.88;2.97;;;;;;;;;;5070594;28;20040;-77
2022/05/01 11:05:55;;;;;;;4.40;3.25;;;;;;;;;;5054582;28;20040;-78
2022/05/01 11:08:23;;;;;;;4.25;2.83;;;;;;;;;;5070757;28;20454;-77
2022/05/01 11:10:50;;;;;;;5.18;2.88;;;;;;;;;;5069868;28;20123;-77
2022/05/01 11:13:17;;;;;;;3.90;2.60;;;;;;;;;;5055018;28;20067;-78
2022/05/01 11:15:47;;;;;;;2.92;2.65;;;;;;;;;;5055502;28;20072;-79
2022/05/01 11:18:14;;;;;;;4.10;2.55;;;;;;;;;;5071443;28;20102;-78
2022/05/01 11:20:40;;;;;;;5.25;2.65;;;;;;;;;;5054674;28;20074;-77
2022/05/01 11:23:25;;;;;;;3.30;2.75;;;;;;;;;;5054527;28;20043;-78
2022/05/01 11:25:50;;;;;;;2.90;2.38;;;;;;;;;;5054104;28;20086;-77
2022/05/01 11:28:35;;;;;;;4.28;3.10;;;;;;;;;;5070040;28;20594;-79
2022/05/01 11:31:01;;;;;;;4.93;2.78;;;;;;;;;;5070520;28;20051;-77
2022/05/01 11:33:27;;;;;;;3.22;2.88;;;;;;;;;;5070913;28;20037;-78
2022/05/01 11:35:56;;;;;;;4.70;2.72;;;;;;;;;;5055068;28;20044;-78
2022/05/01 11:38:42;;;;;;;4.57;3.10;;;;;;;;;;5070823;28;20052;-77
2022/05/01 11:41:11;;;;;;;3.35;2.60;;;;;;;;;;5046896;28;20049;-76
2022/05/01 11:43:37;;;;;;;2.78;2.55;;;;;;;;;;5071139;28;20051;-78
2022/05/01 11:46:03;;;;;;;2.78;2.55;;;;;;;;;;5071222;28;20047;-77
2022/05/01 11:48:30;;;;;;;5.20;2.88;;;;;;;;;;5054816;28;20488;-78
2022/05/01 11:50:59;;;;;;;5.63;3.00;;;;;;;;;;5071364;28;20040;-79
2022/05/01 11:53:26;;;;;;;2.75;2.55;;;;;;;;;;5054479;28;20032;-74
2022/05/01 12:04:25;;;;;;;4.35;2.83;;;;;;;;;;5071098;28;20044;-79
2022/05/01 12:07:02;;;;;;;3.13;2.55;;;;;;;;;;5054708;28;20053;-76
2022/05/01 12:09:28;;;;;;;4.65;3.15;;;;;;;;;;5054070;28;20396;-77
2022/05/01 12:11:55;;;;;;;3.75;2.75;;;;;;;;;;5054108;28;20488;-77
2022/05/01 12:14:21;;;;;;;3.72;2.50;;;;;;;;;;5071256;28;20037;-78
2022/05/01 12:16:47;;;;;;;4.47;2.80;;;;;;;;;;5071235;28;20128;-78
2022/05/01 12:19:14;;;;;;;2.90;2.40;;;;;;;;;;5071018;28;20040;-78
2022/05/01 12:21:40;;;;;;;3.60;3.10;;;;;;;;;;5054376;28;20037;-78
2022/05/01 12:24:07;;;;;;;5.38;2.90;;;;;;;;;;5054873;28;20037;-78
2022/05/01 12:26:39;;;;;;;5.90;4.80;;;;;;;;;;5054764;28;20076;-78
2022/05/01 12:29:10;;;;;;;3.35;2.65;;;;;;;;;;5054876;28;20071;-77
2022/05/01 12:31:55;;;;;;;5.13;2.50;;;;;;;;;;5054201;28;20464;-75
2022/05/01 12:34:24;;;;;;;4.05;2.40;;;;;;;;;;5071651;28;20045;-78
2022/05/01 12:36:54;;;;;;;5.75;3.13;;;;;;;;;;5054649;28;20076;-77
2022/05/01 12:39:22;;;;;;;7.75;3.20;;;;;;;;;;5071195;28;20110;-78
2022/05/01 12:45:03;;;;;;;4.15;2.70;;;;;;;;;;5070963;28;20052;-79
2022/05/01 12:47:30;;;;;;;3.83;2.83;;;;;;;;;;5054483;28;20040;-77
2022/05/01 12:49:57;;;;;;;5.88;2.90;;;;;;;;;;5054279;28;20084;-79
2022/05/01 12:52:39;;;;;;;5.65;2.80;;;;;;;;;;5054464;28;20127;-77
2022/05/01 12:55:05;;;;;;;5.40;2.50;;;;;;;;;;5071120;28;20053;-78
2022/05/01 12:57:34;;;;;;;4.32;3.65;;;;;;;;;;5054457;28;20059;-79
2022/05/01 13:00:00;;;;;;;4.10;2.60;;;;;;;;;;5054368;28;20032;-77
2022/05/01 13:02:27;;;;;;;3.88;2.83;;;;;;;;;;5054401;28;20120;-78
2022/05/01 13:05:00;;;;;;;7.28;3.05;;;;;;;;;;5070918;28;20044;-77
2022/05/01 13:07:30;;;;;;;2.97;2.50;;;;;;;;;;5054637;28;20167;-79
2022/05/01 13:09:56;;;;;;;3.13;2.40;;;;;;;;;;5071182;28;20044;-78
2022/05/01 13:12:30;;;;;;;3.08;2.58;;;;;;;;;;5073807;28;20052;-78
2022/05/01 13:14:58;;;;;;;3.00;2.38;;;;;;;;;;5074920;28;20060;-78
2022/05/01 13:17:27;;;;;;;3.78;2.60;;;;;;;;;;5057908;28;20036;-78
2022/05/01 13:19:53;;;;;;;3.63;2.30;;;;;;;;;;5074856;28;20047;-78
2022/05/01 13:22:21;;;;;;;5.50;3.10;;;;;;;;;;5057624;28;20087;-77
2022/05/01 13:24:52;;;;;;;4.10;2.42;;;;;;;;;;5057658;28;20037;-79
2022/05/01 13:27:18;;;;;;;5.03;2.90;;;;;;;;;;5074236;28;20040;-78
2022/05/01 13:29:44;;;;;;;4.03;2.78;;;;;;;;;;5057546;28;20044;-78
2022/05/01 13:32:11;;;;;;;4.22;2.85;;;;;;;;;;5057118;28;20048;-76
2022/05/01 13:34:39;;;;;;;5.07;2.45;;;;;;;;;;5057269;28;20043;-78
2022/05/01 13:37:08;;;;;;;4.95;2.60;;;;;;;;;;5057338;28;20076;-78
2022/05/01 13:45:03;;;;;;;3.65;2.53;;;;;;;;;;5073556;28;20048;-76
2022/05/01 13:47:29;;;;;;;4.63;2.55;;;;;;;;;;5073617;28;20131;-78
2022/05/01 13:49:56;;;;;;;4.22;2.53;;;;;;;;;;5073755;28;20041;-77
2022/05/01 13:52:22;;;;;;;6.25;3.05;;;;;;;;;;5057437;28;20037;-77
2022/05/01 13:54:48;;;;;;;3.47;3.03;;;;;;;;;;5057079;28;20045;-78
2022/05/01 13:57:14;;;;;;;4.78;2.75;;;;;;;;;;5073546;28;20033;-77
2022/05/01 13:59:40;;;;;;;3.67;2.53;;;;;;;;;;5056549;28;20036;-78
2022/05/01 14:02:08;;;;;;;4.47;2.58;;;;;;;;;;5057172;28;20044;-80
2022/05/01 14:04:34;;;;;;;2.47;2.22;;;;;;;;;;5056766;28;20052;-72
2022/05/01 14:07:00;;;;;;;4.00;2.45;;;;;;;;;;5056217;28;20048;-77
2022/05/01 14:09:27;;;;;;;4.72;3.03;;;;;;;;;;5057149;28;20557;-78
2022/05/01 14:11:56;;;;;;;4.78;2.97;;;;;;;;;;5056469;28;20063;-78
2022/05/01 14:14:22;;;;;;;4.43;3.15;;;;;;;;;;5056482;28;20039;-77
2022/05/01 14:16:48;;;;;;;4.55;3.25;;;;;;;;;;5055825;28;20111;-78
2022/05/01 14:19:21;;;;;;;6.55;3.75;;;;;;;;;;5055965;28;20040;-78
2022/05/01 14:21:47;;;;;;;4.00;2.83;;;;;;;;;;5056152;28;20464;-77
2022/05/01 14:24:14;;;;;;;4.47;3.10;;;;;;;;;;5071825;28;20098;-79
2022/05/01 14:26:41;;;;;;;4.15;2.83;;;;;;;;;;5051882;28;20075;-78
2022/05/01 14:29:07;;;;;;;7.82;3.08;;;;;;;;;;5051588;28;20048;-81
2022/05/01 14:31:56;;;;;;;6.25;3.35;;;;;;;;;;5052313;28;20386;-80
2022/05/01 14:34:23;;;;;;;6.32;3.75;;;;;;;;;;5050265;28;20080;-78
2022/05/01 14:36:51;;;;;;;8.00;3.33;;;;;;;;;;5071210;28;20036;-81
2022/05/01 14:39:18;;;;;;;4.75;3.63;;;;;;;;;;5054927;28;20054;-74
2022/05/01 14:41:50;;;;;;;6.13;3.28;;;;;;;;;;5052677;28;20044;-79
2022/05/01 14:44:21;;;;;;;4.70;3.10;;;;;;;;;;5068647;28;20189;-80
2022/05/01 14:46:58;;;;;;;3.25;2.83;;;;;;;;;;5052195;28;20102;-80
2022/05/01 14:49:39;;;;;;;5.40;3.50;;;;;;;;;;5051564;28;20484;-78
2022/05/01 14:52:13;;;;;;;6.30;3.05;;;;;;;;;;5052063;28;20044;-80
2022/05/01 14:54:40;;;;;;;5.10;3.35;;;;;;;;;;5051290;28;20041;-80
2022/05/01 14:57:11;;;;;;;6.40;3.70;;;;;;;;;;5051776;28;20056;-79
2022/05/01 15:08:00;;;;;;;6.22;4.00;;;;;;;;;;5067922;28;20048;-79
2022/05/01 15:10:26;;;;;;;6.55;3.22;;;;;;;;;;5051520;28;20093;-76
2022/05/01 15:12:52;;;;;;;5.45;3.40;;;;;;;;;;5050872;28;20048;-79
2022/05/01 15:15:19;;;;;;;5.40;3.63;;;;;;;;;;5067772;28;20036;-76
2022/05/01 15:17:51;;;;;;;4.30;3.53;;;;;;;;;;5050510;28;20040;-77
2022/05/01 15:20:20;;;;;;;5.40;3.95;;;;;;;;;;5050915;28;20044;-75
2022/05/01 15:23:02;;;;;;;7.78;3.97;;;;;;;;;;5066511;28;20040;-78
2022/05/01 15:25:33;;;;;;;7.93;4.32;;;;;;;;;;5048063;28;20040;-79
2022/05/01 15:28:04;;;;;;;9.23;3.97;;;;;;;;;;5049466;28;20135;-76